Time;durP1;ratioP1;P1;durP2;ratioP2;P2;SDS_P1;SDS_P2;PMS_P1;PMS_P2;Temp;Humidity;BMP_temperature;BMP_pressure;BME280_temperature;BME280_humidity;BME280_pressure;Samples;Min_cycle;Max_cycle;Signal;HPM_P1;HPM_P2
2022/08/04 00:01:11;;;;;;;;;;;;;;;23.70;54.72;100995.81;4998799;28;4237;-63
2022/08/04 00:03:46;;;;;;;;;;;;;;;23.74;54.50;100989.44;5000866;28;4048;-63
2022/08/04 00:06:16;;;;;;;;;;;;;;;23.62;54.43;100998.44;4998322;28;5504;-63
2022/08/04 00:08:45;;;;;;;;;;;;;;;23.71;54.18;101003.09;4998413;28;3945;-63
2022/08/04 00:11:13;;;;;;;;;;;;;;;23.39;54.85;100991.84;5000873;28;4156;-63
2022/08/04 00:13:41;;;;;;;;;;;;;;;23.65;54.42;100982.63;5001108;28;4433;-63
2022/08/04 00:16:28;;;;;;;;;;;;;;;23.73;54.39;100982.16;5002680;28;4049;-63
2022/08/04 00:19:03;;;;;;;;;;;;;;;23.72;54.56;100981.44;5000304;28;4079;-63
2022/08/04 00:21:30;;;;;;;;;;;;;;;23.77;54.30;100988.13;5000053;28;4159;-63
2022/08/04 00:23:56;;;;;;;;;;;;;;;23.78;54.38;100981.69;5000955;28;4075;-64
2022/08/04 00:26:37;;;;;;;;;;;;;;;23.72;54.80;100989.38;4998204;28;4192;-63
2022/08/04 00:29:04;;;;;;;;;;;;;;;23.63;54.95;100979.66;4985956;28;4182;-63
2022/08/04 00:31:30;;;;;;;;;;;;;;;23.69;54.92;100982.78;4995509;28;5344;-63
2022/08/04 00:34:17;;;;;;;;;;;;;;;23.72;54.85;100984.31;4997432;28;4233;-63
2022/08/04 00:36:43;;;;;;;;;;;;;;;23.74;54.76;100984.41;4999114;28;4224;-64
2022/08/04 00:39:10;;;;;;;;;;;;;;;23.70;55.08;100984.25;4998429;28;4205;-63
2022/08/04 00:41:38;;;;;;;;;;;;;;;23.72;55.15;100980.69;5000791;28;4219;-64
2022/08/04 00:44:29;;;;;;;;;;;;;;;23.75;55.09;100980.09;5002041;28;5890;-63
2022/08/04 00:46:59;;;;;;;;;;;;;;;23.62;55.36;100986.88;4994481;28;4544;-63
2022/08/04 00:49:44;;;;;;;;;;;;;;;23.60;55.57;100981.75;4994675;28;4118;-63
2022/08/04 00:52:16;;;;;;;;;;;;;;;23.62;55.61;100983.97;4991424;28;4246;-63
2022/08/04 00:55:08;;;;;;;;;;;;;;;23.59;55.68;100986.06;4999594;28;4191;-63
2022/08/04 00:57:50;;;;;;;;;;;;;;;23.60;55.24;100981.75;4999189;28;4076;-64
2022/08/04 01:00:16;;;;;;;;;;;;;;;23.58;55.43;100983.84;5004942;28;4180;-64
2022/08/04 01:03:15;;;;;;;;;;;;;;;23.58;55.86;100989.63;4996561;28;4045;-64
2022/08/04 01:05:46;;;;;;;;;;;;;;;23.51;56.20;100990.81;4960572;28;4100;-63
2022/08/04 01:08:27;;;;;;;;;;;;;;;23.52;56.80;100993.00;4997137;28;4278;-63
2022/08/04 01:11:10;;;;;;;;;;;;;;;23.53;56.72;100993.78;4996917;28;4074;-63
2022/08/04 01:13:38;;;;;;;;;;;;;;;23.57;56.41;100993.91;4988407;28;4697;-65
2022/08/04 01:16:06;;;;;;;;;;;;;;;23.46;56.77;100986.31;5005433;28;4275;-64
2022/08/04 01:18:45;;;;;;;;;;;;;;;23.53;56.64;100985.84;4983411;28;4212;-63
2022/08/04 01:21:22;;;;;;;;;;;;;;;23.50;56.76;100983.53;4993889;28;4491;-63
2022/08/04 01:23:53;;;;;;;;;;;;;;;23.41;57.03;100983.25;4985380;28;4165;-63
2022/08/04 01:26:40;;;;;;;;;;;;;;;23.48;56.91;100983.47;4986922;28;4373;-63
2022/08/04 01:29:22;;;;;;;;;;;;;;;23.42;56.84;100987.63;4974870;28;6326;-63
2022/08/04 01:31:56;;;;;;;;;;;;;;;23.46;56.95;100989.19;4981627;28;5261;-63
2022/08/04 01:34:22;;;;;;;;;;;;;;;23.29;57.10;100982.81;4989033;28;4666;-64
2022/08/04 01:36:56;;;;;;;;;;;;;;;23.41;56.66;100988.31;4989815;28;4361;-63
2022/08/04 01:39:40;;;;;;;;;;;;;;;23.37;56.61;100979.50;4981718;28;4520;-64
2022/08/04 01:42:10;;;;;;;;;;;;;;;23.42;56.70;100978.94;4986944;28;5531;-64
2022/08/04 01:44:39;;;;;;;;;;;;;;;23.40;56.32;100978.88;4985934;28;5692;-63
2022/08/04 01:47:05;;;;;;;;;;;;;;;23.42;56.15;100981.84;4986206;28;4246;-64
2022/08/04 01:49:32;;;;;;;;;;;;;;;23.42;55.96;100984.72;4986629;28;4854;-63
2022/08/04 01:52:06;;;;;;;;;;;;;;;23.45;55.64;100984.81;4990556;28;4394;-63
2022/08/04 01:54:33;;;;;;;;;;;;;;;23.23;55.83;100979.72;4982799;28;4161;-63
2022/08/04 01:56:59;;;;;;;;;;;;;;;23.33;55.69;100988.00;4994388;28;5255;-63
2022/08/04 01:59:46;;;;;;;;;;;;;;;23.39;55.67;100979.56;4997782;28;4197;-63
2022/08/04 02:02:12;;;;;;;;;;;;;;;23.18;56.19;100981.72;4994709;28;5223;-63
2022/08/04 02:04:38;;;;;;;;;;;;;;;23.24;55.76;100981.19;4996656;28;4245;-63
2022/08/04 02:07:14;;;;;;;;;;;;;;;23.28;55.57;100975.56;4991069;28;4092;-63
2022/08/04 02:09:52;;;;;;;;;;;;;;;23.36;55.67;100980.88;4992446;28;4165;-63
2022/08/04 02:12:38;;;;;;;;;;;;;;;23.30;55.75;100978.53;4991492;28;4227;-63
2022/08/04 02:15:08;;;;;;;;;;;;;;;23.33;55.79;100977.19;4997442;28;4048;-63
2022/08/04 02:17:37;;;;;;;;;;;;;;;23.27;55.53;100971.19;4993162;28;4439;-63
2022/08/04 02:20:07;;;;;;;;;;;;;;;23.27;55.73;100968.28;4994811;28;4299;-63
2022/08/04 02:22:37;;;;;;;;;;;;;;;23.08;56.29;100969.03;4989169;28;4206;-64
2022/08/04 02:25:04;;;;;;;;;;;;;;;23.00;56.97;100976.00;4991747;28;4254;-64
2022/08/04 02:27:33;;;;;;;;;;;;;;;23.09;56.29;100964.72;4995991;28;4177;-63
2022/08/04 02:30:19;;;;;;;;;;;;;;;23.11;56.41;100967.69;4997790;28;4581;-63
2022/08/04 02:32:45;;;;;;;;;;;;;;;23.00;56.44;100964.44;4993294;28;4135;-63
2022/08/04 02:35:15;;;;;;;;;;;;;;;23.04;56.51;100957.34;4995640;28;4709;-63
2022/08/04 02:37:48;;;;;;;;;;;;;;;23.19;56.40;100950.69;4993665;28;4102;-64
2022/08/04 02:40:17;;;;;;;;;;;;;;;23.16;56.52;100957.78;4989831;28;4220;-64
2022/08/04 02:42:44;;;;;;;;;;;;;;;23.07;56.78;100958.91;4989204;28;4244;-64
2022/08/04 02:45:10;;;;;;;;;;;;;;;22.92;57.08;100958.34;4988947;28;4164;-64
2022/08/04 02:47:36;;;;;;;;;;;;;;;22.96;57.43;100949.81;4998649;28;4222;-64
2022/08/04 02:50:23;;;;;;;;;;;;;;;22.96;57.41;100952.72;4993816;28;4156;-64
2022/08/04 02:52:54;;;;;;;;;;;;;;;23.08;57.56;100952.44;4996399;28;4499;-63
2022/08/04 02:55:20;;;;;;;;;;;;;;;23.08;57.84;100948.81;5011678;28;4376;-63
2022/08/04 02:57:49;;;;;;;;;;;;;;;22.80;58.47;100947.06;4993397;28;4072;-64
2022/08/04 03:00:17;;;;;;;;;;;;;;;22.98;58.00;100954.94;4995770;28;5425;-64
2022/08/04 03:02:53;;;;;;;;;;;;;;;22.94;57.95;100946.84;4992103;28;4415;-64
2022/08/04 03:05:26;;;;;;;;;;;;;;;22.86;58.55;100955.22;4994194;28;4287;-64
2022/08/04 03:07:58;;;;;;;;;;;;;;;22.81;58.58;100953.56;5002122;28;4146;-64
2022/08/04 03:10:43;;;;;;;;;;;;;;;22.64;59.31;100957.25;4993481;28;4042;-64
2022/08/04 03:13:31;;;;;;;;;;;;;;;22.75;58.70;100959.13;4994334;28;4255;-64
2022/08/04 03:15:59;;;;;;;;;;;;;;;22.71;58.89;100951.06;4988048;28;4401;-64
2022/08/04 03:18:36;;;;;;;;;;;;;;;22.76;58.97;100951.94;4991749;28;5314;-64
2022/08/04 03:21:04;;;;;;;;;;;;;;;22.64;58.98;100954.38;4987013;28;4361;-64
2022/08/04 03:23:49;;;;;;;;;;;;;;;22.85;58.40;100956.63;4990871;28;4131;-64
2022/08/04 03:26:24;;;;;;;;;;;;;;;22.79;58.84;100953.50;4993971;28;5485;-64
2022/08/04 03:29:06;;;;;;;;;;;;;;;22.75;58.90;100951.22;4998264;28;4646;-64
2022/08/04 03:31:43;;;;;;;;;;;;;;;22.36;59.61;100957.63;4990683;28;4437;-63
2022/08/04 03:34:28;;;;;;;;;;;;;;;22.57;59.09;100954.13;4995270;28;4703;-63
2022/08/04 03:37:18;;;;;;;;;;;;;;;22.74;58.49;100949.72;4995373;28;3945;-63
2022/08/04 03:39:50;;;;;;;;;;;;;;;22.74;58.44;100949.72;4989963;28;4548;-63
2022/08/04 03:42:38;;;;;;;;;;;;;;;22.63;59.25;100952.88;4988323;28;5888;-63
2022/08/04 03:45:23;;;;;;;;;;;;;;;22.72;58.43;100948.91;4984847;28;4044;-63
2022/08/04 03:48:06;;;;;;;;;;;;;;;22.78;58.22;100949.13;4986552;28;4148;-64
2022/08/04 03:50:37;;;;;;;;;;;;;;;22.65;59.08;100952.97;4984668;28;4549;-64
2022/08/04 03:53:22;;;;;;;;;;;;;;;22.77;58.37;100939.00;4986517;28;4521;-63
2022/08/04 03:55:57;;;;;;;;;;;;;;;22.88;58.35;100946.63;4983781;28;5549;-63
2022/08/04 03:58:30;;;;;;;;;;;;;;;22.66;58.60;100942.91;4987377;28;4561;-64
2022/08/04 04:01:18;;;;;;;;;;;;;;;22.76;58.70;100951.94;4984538;28;4532;-64
2022/08/04 04:04:00;;;;;;;;;;;;;;;22.78;58.57;100949.13;4990414;28;5640;-64
2022/08/04 04:06:33;;;;;;;;;;;;;;;22.63;59.30;100938.44;4985630;28;4189;-64
2022/08/04 04:09:01;;;;;;;;;;;;;;;22.53;59.24;100942.44;4985938;28;5444;-63
2022/08/04 04:11:32;;;;;;;;;;;;;;;22.49;59.34;100942.25;4981932;28;4630;-64
2022/08/04 04:14:14;;;;;;;;;;;;;;;22.62;59.43;100949.25;4985343;28;4235;-63
2022/08/04 04:16:44;;;;;;;;;;;;;;;22.54;59.73;100952.59;4984353;28;4706;-64
2022/08/04 04:19:29;;;;;;;;;;;;;;;22.68;59.33;100951.66;4984205;28;5352;-64
2022/08/04 04:22:04;;;;;;;;;;;;;;;22.62;59.68;100948.53;4984368;28;4477;-64
2022/08/04 04:24:49;;;;;;;;;;;;;;;22.63;59.69;100950.00;4984872;28;4582;-64
2022/08/04 04:27:29;;;;;;;;;;;;;;;22.58;60.09;100946.94;4984115;28;6355;-64
2022/08/04 04:30:05;;;;;;;;;;;;;;;22.55;60.18;100948.28;4982536;28;4070;-64
2022/08/04 04:32:42;;;;;;;;;;;;;;;22.64;59.94;100951.50;4984245;28;4400;-64
2022/08/04 04:35:18;;;;;;;;;;;;;;;22.57;59.88;100953.41;4983019;28;4222;-64
2022/08/04 04:37:45;;;;;;;;;;;;;;;21.96;61.78;100963.19;4985934;28;4601;-64
2022/08/04 04:40:20;;;;;;;;;;;;;;;21.70;63.04;100954.94;4994786;28;4546;-65
2022/08/04 04:42:55;;;;;;;;;;;;;;;21.57;63.80;100963.72;4996027;28;4654;-64
2022/08/04 04:45:24;;;;;;;;;;;;;;;21.62;64.07;100960.34;4997930;28;4760;-64
2022/08/04 04:47:55;;;;;;;;;;;;;;;21.72;64.37;100963.66;4999580;28;5238;-64
2022/08/04 04:50:38;;;;;;;;;;;;;;;21.71;64.95;100965.06;4997654;28;4087;-64
2022/08/04 04:53:15;;;;;;;;;;;;;;;21.89;65.47;100964.34;5001398;28;4492;-64
2022/08/04 04:55:42;;;;;;;;;;;;;;;22.08;65.23;100962.97;4990871;28;4768;-62
2022/08/04 04:58:13;;;;;;;;;;;;;;;22.39;64.77;100964.97;4991489;28;5115;-59
2022/08/04 05:00:46;;;;;;;;;;;;;;;22.58;64.38;100958.50;4992809;28;4500;-62
2022/08/04 05:03:31;;;;;;;;;;;;;;;22.61;64.26;100953.56;4995372;28;4548;-65
2022/08/04 05:05:59;;;;;;;;;;;;;;;22.51;64.33;100965.44;4996690;28;4548;-65
2022/08/04 05:08:41;;;;;;;;;;;;;;;22.62;63.96;100952.16;4998274;28;4567;-64
2022/08/04 05:11:30;;;;;;;;;;;;;;;22.70;63.74;100960.38;4997876;28;4901;-65
2022/08/04 05:13:57;;;;;;;;;;;;;;;22.73;63.76;100959.06;4998493;28;4255;-64
2022/08/04 05:16:44;;;;;;;;;;;;;;;22.83;63.26;100959.44;4999078;28;4998;-64
2022/08/04 05:19:15;;;;;;;;;;;;;;;22.98;62.72;100955.69;4998421;28;4450;-64
2022/08/04 05:21:48;;;;;;;;;;;;;;;23.09;62.55;100964.72;5004627;28;4055;-65
2022/08/04 05:24:16;;;;;;;;;;;;;;;23.12;61.94;100958.38;5000641;28;5110;-65
2022/08/04 05:26:43;;;;;;;;;;;;;;;23.19;62.08;100968.00;4996583;28;4256;-65
2022/08/04 05:29:10;;;;;;;;;;;;;;;23.21;61.72;100965.19;4998442;28;3997;-64
2022/08/04 05:31:39;;;;;;;;;;;;;;;23.21;61.49;100965.94;4997184;28;4498;-59
2022/08/04 05:34:11;;;;;;;;;;;;;;;23.35;64.54;100968.59;4989054;28;4368;-71
2022/08/04 05:36:39;;;;;;;;;;;;;;;23.35;61.54;100968.59;4997443;28;4557;-68
2022/08/04 05:39:09;;;;;;;;;;;;;;;23.47;61.20;100964.66;5004797;28;4186;-69
2022/08/04 05:41:35;;;;;;;;;;;;;;;23.49;60.45;100967.63;5000316;28;4082;-67
2022/08/04 05:44:20;;;;;;;;;;;;;;;23.54;60.07;100961.28;5000890;28;5687;-66
2022/08/04 05:46:47;;;;;;;;;;;;;;;23.60;59.82;100957.88;4999843;28;4382;-67
2022/08/04 05:49:20;;;;;;;;;;;;;;;23.70;60.03;100964.00;4997078;28;4197;-70
2022/08/04 05:51:47;;;;;;;;;;;;;;;23.71;59.25;100961.84;4998114;28;4236;-70
2022/08/04 05:54:14;;;;;;;;;;;;;;;23.76;60.54;100964.25;5002922;28;4424;-71
2022/08/04 05:56:40;;;;;;;;;;;;;;;23.80;60.44;100958.63;5000858;28;5467;-67
2022/08/04 05:59:06;;;;;;;;;;;;;;;23.78;59.86;100961.44;4996969;28;4026;-66
2022/08/04 06:01:33;;;;;;;;;;;;;;;23.84;59.13;100963.78;4999334;28;4457;-70
2022/08/04 06:04:20;;;;;;;;;;;;;;;24.05;58.54;100962.28;4993763;28;4650;-66
2022/08/04 06:06:47;;;;;;;;;;;;;;;24.67;57.57;100962.84;5000305;28;4656;-67
2022/08/04 06:09:13;;;;;;;;;;;;;;;24.83;57.08;100961.81;4990280;28;4500;-66
2022/08/04 06:11:40;;;;;;;;;;;;;;;24.97;56.24;100965.16;4996760;28;4199;-66
2022/08/04 06:14:26;;;;;;;;;;;;;;;25.07;56.19;100968.34;4995474;28;4962;-66
2022/08/04 06:16:53;;;;;;;;;;;;;;;25.03;56.43;100964.59;5000273;28;5430;-70
2022/08/04 06:19:19;;;;;;;;;;;;;;;25.06;55.36;100963.97;4998375;28;4645;-67
2022/08/04 06:22:05;;;;;;;;;;;;;;;25.12;54.92;100969.19;4998950;28;4540;-69
2022/08/04 06:24:32;;;;;;;;;;;;;;;25.18;55.37;100969.41;4998142;28;4171;-71
2022/08/04 06:26:59;;;;;;;;;;;;;;;25.01;54.74;100968.16;4999442;28;4088;-70
2022/08/04 06:29:30;;;;;;;;;;;;;;;25.07;54.74;100968.34;4998579;28;4017;-72
2022/08/04 06:31:57;;;;;;;;;;;;;;;24.59;54.97;100974.16;5003665;28;4029;-63
2022/08/04 06:34:43;;;;;;;;;;;;;;;24.83;54.22;100967.63;4999200;28;4606;-64
2022/08/04 06:37:10;;;;;;;;;;;;;;;24.98;54.31;100975.31;4993854;28;5517;-64
2022/08/04 06:39:37;;;;;;;;;;;;;;;25.26;53.89;100971.78;4995778;28;4673;-65
2022/08/04 06:42:03;;;;;;;;;;;;;;;24.88;53.50;100972.88;4998041;28;4202;-66
2022/08/04 06:44:50;;;;;;;;;;;;;;;24.88;53.64;100963.44;4997740;28;4110;-67
2022/08/04 06:47:18;;;;;;;;;;;;;;;24.92;53.44;100963.53;4995943;28;5806;-66
2022/08/04 06:49:45;;;;;;;;;;;;;;;25.08;53.14;100964.03;4998851;28;4647;-70
2022/08/04 06:52:32;;;;;;;;;;;;;;;25.11;53.83;100958.31;4998437;28;4592;-66
2022/08/04 06:54:58;;;;;;;;;;;;;;;24.93;53.19;100970.84;4997661;28;4111;-65
2022/08/04 06:57:29;;;;;;;;;;;;;;;25.27;53.59;100964.56;4995562;28;4564;-66
2022/08/04 06:59:59;;;;;;;;;;;;;;;25.19;53.58;100961.44;4995904;28;5244;-72
2022/08/04 07:02:29;;;;;;;;;;;;;;;25.01;53.47;100964.53;4992027;28;4564;-68
2022/08/04 07:04:55;;;;;;;;;;;;;;;24.90;53.36;100960.63;5002745;28;4659;-67
2022/08/04 07:07:24;;;;;;;;;;;;;;;24.60;54.07;100964.06;4986383;28;4698;-66
2022/08/04 07:10:02;;;;;;;;;;;;;;;24.52;54.65;100958.03;4993052;28;4686;-65
2022/08/04 07:12:28;;;;;;;;;;;;;;;24.48;54.81;100957.91;4992551;28;5352;-65
2022/08/04 07:14:55;;;;;;;;;;;;;;;24.44;55.09;100963.53;4992857;28;4115;-65
2022/08/04 07:17:21;;;;;;;;;;;;;;;24.40;55.07;100964.16;4990682;28;4436;-66
2022/08/04 07:19:54;;;;;;;;;;;;;;;24.38;55.53;100955.41;4990962;28;4819;-66
2022/08/04 07:22:20;;;;;;;;;;;;;;;24.35;55.56;100970.47;4990430;28;4287;-66
2022/08/04 07:24:55;;;;;;;;;;;;;;;24.31;55.83;100956.63;4994665;28;5335;-66
2022/08/04 07:27:22;;;;;;;;;;;;;;;24.27;56.17;100950.72;4984879;28;4626;-66
2022/08/04 07:30:08;;;;;;;;;;;;;;;24.27;56.01;100961.56;4990071;28;4261;-65
2022/08/04 07:32:34;;;;;;;;;;;;;;;24.24;56.23;100958.59;4992600;28;5242;-65
2022/08/04 07:35:01;;;;;;;;;;;;;;;24.22;56.60;100955.63;4987387;28;4847;-63
2022/08/04 07:37:27;;;;;;;;;;;;;;;24.22;56.71;100960.69;4989867;28;4750;-63
2022/08/04 07:40:05;;;;;;;;;;;;;;;24.21;57.11;100959.19;4992740;28;4749;-63
2022/08/04 07:42:32;;;;;;;;;;;;;;;24.18;57.16;100958.38;4993024;28;5422;-64
2022/08/04 07:44:58;;;;;;;;;;;;;;;24.16;56.99;100949.63;4994971;28;4514;-63
2022/08/04 07:47:26;;;;;;;;;;;;;;;24.16;56.88;100958.31;4995460;28;5263;-66
2022/08/04 07:49:52;;;;;;;;;;;;;;;24.15;57.35;100951.06;4987599;28;4192;-63
2022/08/04 07:52:23;;;;;;;;;;;;;;;24.14;56.84;100946.69;4986151;28;4685;-65
2022/08/04 07:54:50;;;;;;;;;;;;;;;24.13;57.38;100953.88;4994256;28;4388;-63
2022/08/04 07:57:17;;;;;;;;;;;;;;;24.14;57.02;100943.06;5005773;28;4502;-63
2022/08/04 08:00:04;;;;;;;;;;;;;;;24.13;57.53;100950.25;4991847;28;4084;-64
2022/08/04 08:02:36;;;;;;;;;;;;;;;24.24;55.96;100941.22;4969441;28;4937;-62
2022/08/04 08:05:03;;;;;;;;;;;;;;;24.49;55.60;100947.06;4994563;28;4427;-65
2022/08/04 08:07:29;;;;;;;;;;;;;;;24.54;55.80;100934.94;4989766;28;4245;-64
2022/08/04 08:09:55;;;;;;;;;;;;;;;24.64;55.35;100946.06;4993536;28;4784;-72
2022/08/04 08:12:22;;;;;;;;;;;;;;;24.66;55.58;100937.47;4993573;28;4614;-67
2022/08/04 08:15:09;;;;;;;;;;;;;;;24.75;55.73;100939.16;5000204;28;4240;-73
2022/08/04 08:17:38;;;;;;;;;;;;;;;24.72;55.29;100937.66;4994883;28;5338;-68
2022/08/04 08:20:24;;;;;;;;;;;;;;;24.75;55.17;100929.75;4995640;28;4966;-71
2022/08/04 08:22:57;;;;;;;;;;;;;;;24.83;55.36;100927.84;4997713;28;4719;-67
2022/08/04 08:25:23;;;;;;;;;;;;;;;24.91;54.87;100933.13;5000344;28;5978;-71
2022/08/04 08:27:49;;;;;;;;;;;;;;;24.80;54.86;100925.56;4998779;28;5655;-70
2022/08/04 08:30:22;;;;;;;;;;;;;;;24.79;55.16;100924.81;4995371;28;5218;-68
2022/08/04 08:32:49;;;;;;;;;;;;;;;24.70;55.03;100926.00;4999089;28;4429;-70
2022/08/04 08:35:15;;;;;;;;;;;;;;;25.00;55.00;100920.34;4994175;28;4969;-69
2022/08/04 08:37:46;;;;;;;;;;;;;;;25.06;54.42;100925.56;4999033;28;4503;-67
2022/08/04 08:40:12;;;;;;;;;;;;;;;25.25;54.79;100926.84;4998590;28;5494;-70
2022/08/04 08:42:57;;;;;;;;;;;;;;;25.57;54.09;100920.44;4996983;28;4427;-70
2022/08/04 08:45:50;;;;;;;;;;;;;;;25.46;54.08;100911.47;4999646;28;5497;-72
2022/08/04 08:48:20;;;;;;;;;;;;;;;25.39;53.52;100921.41;4999033;28;4601;-66
2022/08/04 08:50:57;;;;;;;;;;;;;;;25.31;53.79;100921.19;5000560;28;5337;-73
2022/08/04 08:53:35;;;;;;;;;;;;;;;25.39;54.11;100921.41;5002263;28;5398;-69
2022/08/04 08:56:10;;;;;;;;;;;;;;;25.34;53.64;100913.31;5002070;28;4658;-68
2022/08/04 08:58:55;;;;;;;;;;;;;;;25.43;53.99;100915.00;4998950;28;4689;-69
2022/08/04 09:01:40;;;;;;;;;;;;;;;25.26;53.84;100908.03;4998302;28;5540;-69
2022/08/04 09:04:19;;;;;;;;;;;;;;;25.34;53.76;100913.31;4990012;28;4769;-67
2022/08/04 09:06:58;;;;;;;;;;;;;;;25.47;53.86;100915.09;4997881;28;4469;-72
2022/08/04 09:09:29;;;;;;;;;;;;;;;25.43;53.66;100912.84;4995228;28;5281;-68
2022/08/04 09:12:06;;;;;;;;;;;;;;;25.42;53.38;100913.50;4997465;28;4217;-68
2022/08/04 09:14:46;;;;;;;;;;;;;;;25.54;53.92;100918.88;4998613;28;4607;-73
2022/08/04 09:17:17;;;;;;;;;;;;;;;25.45;53.46;100917.97;4997168;28;5229;-66
2022/08/04 09:19:46;;;;;;;;;;;;;;;25.47;53.65;100910.06;5001958;28;4654;-70
2022/08/04 09:22:18;;;;;;;;;;;;;;;25.59;54.01;100920.50;4997402;28;5830;-68
2022/08/04 09:25:03;;;;;;;;;;;;;;;25.59;53.85;100915.41;4997089;28;4278;-69
2022/08/04 09:27:34;;;;;;;;;;;;;;;25.50;53.61;100925.34;4997272;28;5485;-68
2022/08/04 09:30:04;;;;;;;;;;;;;;;25.53;53.82;100912.34;4999156;28;6605;-77
2022/08/04 09:32:40;;;;;;;;;;;;;;;25.39;53.46;100915.63;4997382;28;5450;-71
2022/08/04 09:35:25;;;;;;;;;;;;;;;25.20;53.69;100907.88;5000167;28;4494;-70
2022/08/04 09:38:13;;;;;;;;;;;;;;;25.34;53.78;100904.63;4995292;28;4226;-70
2022/08/04 09:40:47;;;;;;;;;;;;;;;25.31;53.79;100908.88;4992624;28;5022;-72
2022/08/04 09:43:31;;;;;;;;;;;;;;;25.30;54.00;100902.34;4985038;28;4564;-66
2022/08/04 09:46:24;;;;;;;;;;;;;;;25.25;53.72;100903.66;4994483;28;4088;-64
2022/08/04 09:48:57;;;;;;;;;;;;;;;25.21;53.62;100900.66;4999715;28;4568;-70
2022/08/04 09:51:40;;;;;;;;;;;;;;;25.29;53.95;100897.97;4993719;28;4441;-65
2022/08/04 09:54:42;;;;;;;;;;;;;;;25.18;53.68;100896.97;4998553;28;4581;-63
2022/08/04 09:57:13;;;;;;;;;;;;;;;25.16;53.70;100899.03;4998604;28;4471;-63
2022/08/04 09:59:45;;;;;;;;;;;;;;;25.15;53.80;100894.66;4997616;28;4390;-65
2022/08/04 10:02:12;;;;;;;;;;;;;;;25.19;53.88;100894.78;4995582;28;5994;-64
2022/08/04 10:04:39;;;;;;;;;;;;;;;25.21;54.21;100886.88;5003822;28;5953;-65
2022/08/04 10:07:24;;;;;;;;;;;;;;;25.23;53.60;100889.09;4995432;28;4587;-64
2022/08/04 10:10:00;;;;;;;;;;;;;;;25.24;53.71;100893.47;5000580;28;4649;-64
2022/08/04 10:12:46;;;;;;;;;;;;;;;25.16;53.72;100891.06;4999794;28;4258;-65
2022/08/04 10:15:12;;;;;;;;;;;;;;;25.16;53.84;100888.19;4998691;28;5909;-65
2022/08/04 10:17:42;;;;;;;;;;;;;;;25.15;53.87;100883.81;4994432;28;4235;-64
2022/08/04 10:20:40;;;;;;;;;;;;;;;25.19;53.84;100883.94;4995454;28;4462;-66
2022/08/04 10:23:16;;;;;;;;;;;;;;;25.27;53.70;100877.63;4996270;28;4090;-66
2022/08/04 10:26:01;;;;;;;;;;;;;;;25.24;53.92;100878.97;4994870;28;4306;-64
2022/08/04 10:28:36;;;;;;;;;;;;;;;25.27;54.13;100874.72;4995239;28;5222;-66
2022/08/04 10:31:05;;;;;;;;;;;;;;;25.28;53.92;100870.41;4997647;28;4070;-68
2022/08/04 10:33:36;;;;;;;;;;;;;;;25.30;54.16;100873.34;4994482;28;5221;-66
2022/08/04 10:36:03;;;;;;;;;;;;;;;25.26;54.12;100865.28;4992337;28;4226;-65
2022/08/04 10:38:30;;;;;;;;;;;;;;;25.25;54.30;100865.97;4991473;28;4928;-66
2022/08/04 10:40:59;;;;;;;;;;;;;;;25.30;54.44;100870.47;4998789;28;5147;-66
2022/08/04 10:43:34;;;;;;;;;;;;;;;25.35;54.20;100865.50;4996050;28;4192;-65
2022/08/04 10:46:08;;;;;;;;;;;;;;;25.29;54.47;100869.72;4996779;28;4262;-64
2022/08/04 10:48:38;;;;;;;;;;;;;;;25.26;54.35;100868.19;4994324;28;4593;-64
2022/08/04 10:51:26;;;;;;;;;;;;;;;25.07;54.71;100857.50;5001965;28;4289;-66
2022/08/04 10:53:57;;;;;;;;;;;;;;;25.25;54.88;100855.13;4992642;28;5224;-63
2022/08/04 10:56:40;;;;;;;;;;;;;;;25.44;54.13;100846.91;4992283;28;5360;-64
2022/08/04 10:59:22;;;;;;;;;;;;;;;25.41;54.12;100849.00;4993406;28;5077;-61
2022/08/04 11:01:49;;;;;;;;;;;;;;;25.38;54.21;100852.53;4991911;28;4197;-64
2022/08/04 11:04:29;;;;;;;;;;;;;;;25.49;53.97;100840.53;4998631;28;4559;-70
2022/08/04 11:06:56;;;;;;;;;;;;;;;25.58;53.81;100844.34;4992408;28;5725;-69
2022/08/04 11:09:22;;;;;;;;;;;;;;;25.85;53.68;100848.63;4994653;28;4520;-69
2022/08/04 11:11:52;;;;;;;;;;;;;;;25.96;53.55;100848.91;4991505;28;4310;-68
2022/08/04 11:14:30;;;;;;;;;;;;;;;26.00;53.25;100849.72;4992182;28;5632;-68
2022/08/04 11:16:57;;;;;;;;;;;;;;;25.81;53.15;100836.91;4997027;28;4655;-67
2022/08/04 11:19:34;;;;;;;;;;;;;;;25.77;53.53;100833.94;4992556;28;5860;-66
2022/08/04 11:22:16;;;;;;;;;;;;;;;25.92;53.26;100837.91;4994556;28;4620;-65
2022/08/04 11:24:43;;;;;;;;;;;;;;;25.78;53.19;100831.78;5002847;28;5465;-68
2022/08/04 11:27:11;;;;;;;;;;;;;;;25.98;53.64;100834.44;4993985;28;4705;-67
2022/08/04 11:29:44;;;;;;;;;;;;;;;26.01;53.50;100825.06;5000210;28;4012;-67
2022/08/04 11:32:34;;;;;;;;;;;;;;;25.86;53.18;100826.13;4995475;28;4462;-65
2022/08/04 11:35:00;;;;;;;;;;;;;;;25.92;53.41;100829.94;4989379;28;4697;-64
2022/08/04 11:37:36;;;;;;;;;;;;;;;25.61;53.50;100827.72;4996179;28;5276;-65
2022/08/04 11:40:05;;;;;;;;;;;;;;;25.60;53.84;100826.25;4995702;28;4265;-65
2022/08/04 11:42:39;;;;;;;;;;;;;;;25.69;53.62;100827.94;4989385;28;4317;-64
2022/08/04 11:45:06;;;;;;;;;;;;;;;25.75;53.46;100815.72;4991824;28;5546;-64
2022/08/04 11:47:40;;;;;;;;;;;;;;;25.72;53.51;100823.66;4992429;28;4161;-67
2022/08/04 11:50:25;;;;;;;;;;;;;;;25.77;53.37;100827.38;4993702;28;4610;-65
2022/08/04 11:52:52;;;;;;;;;;;;;;;25.74;53.36;100826.59;4988910;28;4161;-65
2022/08/04 11:55:20;;;;;;;;;;;;;;;25.65;53.38;100824.94;4990995;28;5306;-65
2022/08/04 11:57:46;;;;;;;;;;;;;;;25.62;53.88;100821.25;4992000;28;5340;-66
2022/08/04 12:00:19;;;;;;;;;;;;;;;25.68;53.67;100824.31;4993575;28;4068;-64
2022/08/04 12:03:04;;;;;;;;;;;;;;;25.88;53.38;100823.31;4995854;28;4279;-64
2022/08/04 12:05:31;;;;;;;;;;;;;;;25.79;53.52;100828.16;4994357;28;4182;-65
2022/08/04 12:08:10;;;;;;;;;;;;;;;25.76;53.68;100823.75;4995225;28;4277;-64
2022/08/04 12:10:44;;;;;;;;;;;;;;;25.74;53.75;100832.41;4994711;28;4175;-65
2022/08/04 12:13:13;;;;;;;;;;;;;;;25.70;53.73;100820.69;4998502;28;5130;-67
2022/08/04 12:15:59;;;;;;;;;;;;;;;25.71;53.59;100822.19;4995625;28;4208;-64
2022/08/04 12:18:27;;;;;;;;;;;;;;;25.67;53.94;100816.28;4989555;28;4194;-67
2022/08/04 12:21:00;;;;;;;;;;;;;;;25.66;53.83;100823.53;4995191;28;4252;-66
2022/08/04 12:23:31;;;;;;;;;;;;;;;25.70;53.77;100814.88;4993926;28;4275;-68
2022/08/04 12:25:59;;;;;;;;;;;;;;;25.72;53.77;100817.84;4995540;28;4103;-68
2022/08/04 12:28:25;;;;;;;;;;;;;;;25.72;53.54;100806.25;4976306;28;4248;-63
2022/08/04 12:30:55;;;;;;;;;;;;;;;25.73;53.73;100818.59;4993087;28;4916;-64
2022/08/04 12:33:37;;;;;;;;;;;;;;;25.74;53.65;100803.41;4992238;28;4874;-62
2022/08/04 12:36:26;;;;;;;;;;;;;;;25.75;53.62;100807.78;4995474;28;4182;-64
2022/08/04 12:39:05;;;;;;;;;;;;;;;25.75;53.59;100804.88;4996144;28;5308;-61
2022/08/04 12:41:32;;;;;;;;;;;;;;;25.72;53.63;100803.34;5002701;28;4021;-62
2022/08/04 12:44:05;;;;;;;;;;;;;;;25.78;53.69;100796.97;4990775;28;6241;-65
2022/08/04 12:46:36;;;;;;;;;;;;;;;25.80;53.39;100802.81;4992683;28;5361;-65
2022/08/04 12:49:02;;;;;;;;;;;;;;;25.79;53.49;100787.56;4986608;28;4422;-66
2022/08/04 12:51:35;;;;;;;;;;;;;;;25.79;53.49;100793.34;4997703;28;4308;-64
2022/08/04 12:54:22;;;;;;;;;;;;;;;25.82;53.45;100797.06;4996775;28;4262;-65
2022/08/04 12:56:56;;;;;;;;;;;;;;;25.57;53.95;100795.75;4997784;28;4327;-63
2022/08/04 12:59:22;;;;;;;;;;;;;;;25.39;54.41;100787.34;4996810;28;4013;-64
2022/08/04 13:01:49;;;;;;;;;;;;;;;25.48;54.43;100780.31;4998311;28;4329;-66
2022/08/04 13:04:38;;;;;;;;;;;;;;;25.47;54.71;100782.50;4995115;28;5412;-63
2022/08/04 13:07:14;;;;;;;;;;;;;;;25.55;54.26;100779.03;4996283;28;4092;-67
2022/08/04 13:09:41;;;;;;;;;;;;;;;25.65;54.22;100772.72;4993016;28;4232;-65
2022/08/04 13:12:12;;;;;;;;;;;;;;;25.63;54.28;100770.53;4990384;28;4311;-63
2022/08/04 13:14:39;;;;;;;;;;;;;;;25.66;54.25;100771.31;4994888;28;4050;-66
2022/08/04 13:17:05;;;;;;;;;;;;;;;25.93;54.15;100772.69;4985556;28;5694;-67
2022/08/04 13:19:33;;;;;;;;;;;;;;;26.29;52.96;100772.69;4997220;28;4081;-67
2022/08/04 13:22:07;;;;;;;;;;;;;;;26.37;52.59;100772.16;4998066;28;5553;-70